PWSweather.com
Personal Weather Stations
Station Observations
PEISSEN1
PeissenbergDE

PeissenbergDE

Lat: 47.791845, Lon: 11.064121

Elevation: 1929

Station Type: Davis Vantage Pro 2

wetter-peissenberg.de

High Low Average
Temperature 64.6°F18.1°C 53.1°F11.7°C 57.2°F14.0°C
Dew Point 53.9°F12.2°C 48.9°F9.4°C 51.2°F10.7°C
Winds 8.1 mph 13.0 kmh Calm Calm 2.0 mph WSW3.2 kmh WSW
Wind Gusts 16.0 mph25.7 kmh -- 4.0 mph6.4 kmh
Humidity 93% 61% 81%
Pressure 29.88 in1011.9 mb 29.81 in1009.5 mb -
Precipitation 0.05 in1.3 mm - -
Hour Temp Dew Point Humidity Winds Wind Gusts Pressure Precip Precip Rate Daily Precip Total
12:00 AM 54.1°F12.3°C 51.0°F10.6°C 89% Calm Calm -- 29.83 in1010.2 mb 0.00 in0.0 mm 0.00 in0.0 mm 0.02 in0.5 mm
12:10 AM 54.0°F12.2°C 50.8°F10.4°C 89% Calm Calm -- 29.82 in1009.8 mb 0.00 in0.0 mm 0.00 in0.0 mm 0.02 in0.5 mm
12:20 AM 54.0°F12.2°C 51.1°F10.6°C 90% Calm Calm -- 29.83 in1010.2 mb 0.00 in0.0 mm 0.00 in0.0 mm 0.02 in0.5 mm
02:00 AM 53.8°F12.1°C 51.2°F10.7°C 91% Calm Calm -- 29.83 in1010.2 mb 0.00 in0.0 mm 0.00 in0.0 mm 0.00 in0.0 mm
02:10 AM 53.8°F12.1°C 51.5°F10.8°C 92% Calm Calm -- 29.83 in1010.2 mb 0.00 in0.0 mm 0.00 in0.0 mm 0.00 in0.0 mm
02:20 AM 53.8°F12.1°C 51.5°F10.8°C 92% Calm Calm -- 29.83 in1010.2 mb 0.00 in0.0 mm 0.00 in0.0 mm 0.00 in0.0 mm
04:00 AM 54.7°F12.6°C 52.7°F11.5°C 93% 1.9 mph WSW3.1 kmh WSW 4.0 mph6.4 kmh 29.83 in1010.2 mb 0.00 in0.0 mm 0.00 in0.0 mm 0.00 in0.0 mm
04:10 AM 54.9°F12.7°C 52.9°F11.6°C 93% 1.7 mph N2.7 kmh N 3.0 mph4.8 kmh 29.83 in1010.2 mb 0.00 in0.0 mm 0.00 in0.0 mm 0.00 in0.0 mm
04:20 AM 55.0°F12.8°C 52.8°F11.6°C 92% 1.1 mph WSW1.8 kmh WSW 3.0 mph4.8 kmh 29.83 in1010.2 mb 0.00 in0.0 mm 0.00 in0.0 mm 0.00 in0.0 mm
06:00 AM 54.7°F12.6°C 51.5°F10.8°C 89% 2.2 mph WSW3.5 kmh WSW 3.0 mph4.8 kmh 29.82 in1009.8 mb 0.00 in0.0 mm 0.00 in0.0 mm 0.00 in0.0 mm
06:10 AM 54.9°F12.7°C 51.7°F10.9°C 89% 0.3 mph W0.5 kmh W 2.0 mph3.2 kmh 29.83 in1010.2 mb 0.00 in0.0 mm 0.00 in0.0 mm 0.00 in0.0 mm
06:20 AM 55.0°F12.8°C 51.6°F10.9°C 88% 1.9 mph WSW3.1 kmh WSW 8.0 mph12.9 kmh 29.83 in1010.2 mb 0.00 in0.0 mm 0.00 in0.0 mm 0.00 in0.0 mm
08:00 AM 56.1°F13.4°C 51.7°F10.9°C 85% 1.4 mph WNW2.3 kmh WNW 5.0 mph8.0 kmh 29.83 in1010.2 mb 0.00 in0.0 mm 0.00 in0.0 mm 0.00 in0.0 mm
08:10 AM 56.1°F13.4°C 51.7°F10.9°C 85% 0.4 mph N0.6 kmh N 2.0 mph3.2 kmh 29.83 in1010.2 mb 0.00 in0.0 mm 0.00 in0.0 mm 0.00 in0.0 mm
08:20 AM 56.3°F13.5°C 51.8°F11.0°C 85% 0.3 mph WSW0.5 kmh WSW 1.0 mph1.6 kmh 29.84 in1010.5 mb 0.00 in0.0 mm 0.00 in0.0 mm 0.00 in0.0 mm
10:00 AM 59.9°F15.5°C 53.0°F11.7°C 78% 3.5 mph W5.6 kmh W 7.0 mph11.3 kmh 29.85 in1010.8 mb 0.00 in0.0 mm 0.00 in0.0 mm 0.00 in0.0 mm
10:10 AM 60.1°F15.6°C 52.1°F11.2°C 75% 2.2 mph SW3.5 kmh SW 4.0 mph6.4 kmh 29.85 in1010.8 mb 0.00 in0.0 mm 0.00 in0.0 mm 0.00 in0.0 mm
10:20 AM 59.9°F15.5°C 52.0°F11.1°C 75% 3.2 mph SW5.1 kmh SW 7.0 mph11.3 kmh 29.85 in1010.8 mb 0.00 in0.0 mm 0.00 in0.0 mm 0.00 in0.0 mm
12:00 PM 59.2°F15.1°C 52.0°F11.1°C 77% 5.0 mph NW8.0 kmh NW 10.0 mph16.1 kmh 29.84 in1010.5 mb 0.00 in0.0 mm 0.00 in0.0 mm 0.00 in0.0 mm
12:10 PM 58.3°F14.6°C 52.8°F11.6°C 82% 3.2 mph W5.1 kmh W 6.0 mph9.7 kmh 29.84 in1010.5 mb 0.00 in0.0 mm 0.00 in0.0 mm 0.01 in0.3 mm
12:20 PM 59.7°F15.4°C 53.9°F12.2°C 81% 2.9 mph WSW4.7 kmh WSW 6.0 mph9.7 kmh 29.83 in1010.2 mb 0.00 in0.0 mm 0.00 in0.0 mm 0.01 in0.3 mm
02:00 PM 63.7°F17.6°C 51.7°F10.9°C 65% 5.7 mph WSW9.2 kmh WSW 12.0 mph19.3 kmh 29.81 in1009.5 mb 0.00 in0.0 mm 0.00 in0.0 mm 0.01 in0.3 mm
02:10 PM 64.6°F18.1°C 52.1°F11.2°C 64% 8.1 mph NW13.0 kmh NW 16.0 mph25.7 kmh 29.81 in1009.5 mb 0.00 in0.0 mm 0.00 in0.0 mm 0.01 in0.3 mm
02:20 PM 64.6°F18.1°C 52.1°F11.2°C 64% 7.6 mph SSW12.2 kmh SSW 13.0 mph20.9 kmh 29.81 in1009.5 mb 0.00 in0.0 mm 0.00 in0.0 mm 0.01 in0.3 mm
04:00 PM 63.3°F17.4°C 49.6°F9.8°C 61% 2.7 mph W4.3 kmh W 6.0 mph9.7 kmh 29.81 in1009.5 mb 0.00 in0.0 mm 0.00 in0.0 mm 0.01 in0.3 mm
04:10 PM 62.8°F17.1°C 50.0°F10.0°C 63% 3.3 mph W5.3 kmh W 7.0 mph11.3 kmh 29.81 in1009.5 mb 0.00 in0.0 mm 0.00 in0.0 mm 0.01 in0.3 mm
04:20 PM 62.4°F16.9°C 50.1°F10.1°C 64% 0.6 mph N1.0 kmh N 2.0 mph3.2 kmh 29.81 in1009.5 mb 0.00 in0.0 mm 0.00 in0.0 mm 0.01 in0.3 mm
06:00 PM 59.7°F15.4°C 49.5°F9.7°C 69% 2.0 mph WSW3.2 kmh WSW 4.0 mph6.4 kmh 29.83 in1010.2 mb 0.00 in0.0 mm 0.00 in0.0 mm 0.01 in0.3 mm
06:10 PM 59.0°F15.0°C 49.2°F9.6°C 70% 3.3 mph SW5.3 kmh SW 6.0 mph9.7 kmh 29.83 in1010.2 mb 0.00 in0.0 mm 0.00 in0.0 mm 0.01 in0.3 mm
06:20 PM 58.3°F14.6°C 48.9°F9.4°C 71% 2.7 mph SSW4.3 kmh SSW 4.0 mph6.4 kmh 29.83 in1010.2 mb 0.00 in0.0 mm 0.00 in0.0 mm 0.01 in0.3 mm
08:00 PM 54.3°F12.4°C 49.3°F9.6°C 83% 3.4 mph WSW5.5 kmh WSW 7.0 mph11.3 kmh 29.85 in1010.8 mb 0.00 in0.0 mm 0.00 in0.0 mm 0.04 in1.0 mm
08:10 PM 54.3°F12.4°C 49.6°F9.8°C 84% Calm Calm -- 29.85 in1010.8 mb 0.00 in0.0 mm 0.00 in0.0 mm 0.04 in1.0 mm
08:20 PM 54.1°F12.3°C 49.7°F9.8°C 85% Calm Calm -- 29.86 in1011.2 mb 0.00 in0.0 mm 0.00 in0.0 mm 0.04 in1.0 mm
10:00 PM 53.1°F11.7°C 49.9°F9.9°C 89% Calm Calm -- 29.87 in1011.5 mb 0.00 in0.0 mm 0.00 in0.0 mm 0.05 in1.3 mm
10:10 PM 53.1°F11.7°C 49.9°F9.9°C 89% 0.2 mph N0.3 kmh N 1.0 mph1.6 kmh 29.87 in1011.5 mb 0.00 in0.0 mm 0.00 in0.0 mm 0.05 in1.3 mm
10:20 PM 53.1°F11.7°C 49.9°F9.9°C 89% Calm Calm -- 29.88 in1011.9 mb 0.00 in0.0 mm 0.00 in0.0 mm 0.05 in1.3 mm